Tinker AFB, Oklahoma
Current Conditions -  °F | °C
As of 9:58 PM on Wednesday 26 Nov 2014 (Local Time) from KTIK Reporting Station
Clear Clear  
Wind Chill: 33°   Ceiling: Unl
Heat Index: 39°   Visibility: 10mi
Dew Point: 24°   Wind: 8mph
Humidity: 54%   Direction: 350°N
Pressure: 30.4"   Gusts: NA
Location:  35.4189°N, 97.3941°W
Report Text: KTIK 270358Z AUTO 35007KT 10SM CLR 04/M05 A3040 RMK AO2 SLP306 T00391046
Loading
Personal Weather Stations






























Interactive Weather Map New forecast layout! Learn more

10-Day Weather Forecast

Advertisements
Track Severe Weather on mobile